createdAt,value
2019-03-05T00:02:08.088Z,10.90
2019-03-05T00:04:39.933Z,8.80
2019-03-05T00:07:11.827Z,11.33
2019-03-05T00:09:43.488Z,11.63
2019-03-05T00:12:15.496Z,10.70
2019-03-05T00:14:47.310Z,13.90
2019-03-05T00:17:19.144Z,9.27
2019-03-05T00:19:51.220Z,9.63
2019-03-05T00:22:25.297Z,11.20
2019-03-05T00:25:13.335Z,9.90
2019-03-05T00:27:56.237Z,11.50
2019-03-05T00:31:09.429Z,12.17
2019-03-05T00:34:30.689Z,10.63
2019-03-05T00:37:22.973Z,10.70
2019-03-05T00:40:43.405Z,10.37
2019-03-05T00:44:06.918Z,14.03
2019-03-05T00:47:35.670Z,8.10
2019-03-05T00:51:07.762Z,12.80
2019-03-05T00:54:26.060Z,8.70
2019-03-05T00:58:01.256Z,10.47
2019-03-05T01:01:11.544Z,9.53
2019-03-05T01:04:23.501Z,9.70
2019-03-05T01:06:55.698Z,10.63
2019-03-05T01:09:27.716Z,9.40
2019-03-05T01:11:59.920Z,9.43
2019-03-05T01:14:32.489Z,9.73
2019-03-05T01:17:04.811Z,9.97
2019-03-05T01:19:36.630Z,11.23
2019-03-05T01:22:08.755Z,9.17
2019-03-05T01:24:40.697Z,12.30
2019-03-05T01:27:12.725Z,10.63
2019-03-05T01:29:44.767Z,10.77
2019-03-05T01:32:47.844Z,10.33
2019-03-05T01:35:41.058Z,12.03
2019-03-05T01:38:13.077Z,9.27
2019-03-05T01:40:52.066Z,13.30
2019-03-05T01:43:24.068Z,12.17
2019-03-05T01:45:55.013Z,11.40
2019-03-05T01:48:25.931Z,11.03
2019-03-05T01:50:57.342Z,12.70
2019-03-05T01:53:28.276Z,11.27
2019-03-05T01:55:59.192Z,10.30
2019-03-05T01:58:30.121Z,11.30
2019-03-05T02:01:00.996Z,13.63
2019-03-05T02:03:31.966Z,11.80
2019-03-05T02:06:02.959Z,12.80
2019-03-05T02:08:34.980Z,10.40
2019-03-05T02:11:06.999Z,12.13
2019-03-05T02:13:37.980Z,8.23
2019-03-05T02:16:08.969Z,7.80
2019-03-05T02:18:39.928Z,4.00
2019-03-05T02:21:10.919Z,5.17
2019-03-05T02:25:05.286Z,2.63
2019-03-05T02:28:27.509Z,2.83
2019-03-05T02:31:48.483Z,2.40
2019-03-05T02:35:16.609Z,2.00
2019-03-05T02:38:14.222Z,2.57
2019-03-05T02:41:32.357Z,1.90
2019-03-05T02:45:09.308Z,2.97
2019-03-05T02:48:52.536Z,2.33
2019-03-05T02:52:09.466Z,2.00
2019-03-05T02:55:45.183Z,2.30
2019-03-05T02:58:13.391Z,3.13
2019-03-05T03:01:03.258Z,2.47
2019-03-05T03:03:37.962Z,4.20
2019-03-05T03:06:18.596Z,1.80
2019-03-05T03:08:49.531Z,3.97
2019-03-05T03:11:20.434Z,3.43
2019-03-05T03:13:51.358Z,3.10
2019-03-05T03:16:22.812Z,4.07
2019-03-05T03:18:53.737Z,3.40
2019-03-05T03:21:24.626Z,4.40
2019-03-05T03:23:55.534Z,3.80
2019-03-05T03:26:26.413Z,3.80
2019-03-05T03:28:57.298Z,5.20
2019-03-05T03:31:28.188Z,6.20
2019-03-05T03:33:59.098Z,4.57
2019-03-05T03:36:29.987Z,6.87
2019-03-05T03:39:00.861Z,7.20
2019-03-05T03:41:31.771Z,6.67
2019-03-05T03:44:02.762Z,6.23
2019-03-05T03:46:33.675Z,7.43
2019-03-05T03:49:04.668Z,7.53
2019-03-05T03:51:35.583Z,7.67
2019-03-05T03:54:06.465Z,8.77
2019-03-05T03:56:37.373Z,6.90
2019-03-05T03:59:08.272Z,7.33
2019-03-05T04:01:39.158Z,6.30
2019-03-05T04:04:10.038Z,7.93
2019-03-05T04:06:40.952Z,10.80
2019-03-05T04:09:13.455Z,6.90
2019-03-05T04:11:44.349Z,9.37
2019-03-05T04:14:15.329Z,6.23
2019-03-05T04:16:46.227Z,9.37
2019-03-05T04:19:21.125Z,7.17
2019-03-05T04:21:52.018Z,8.30
2019-03-05T04:24:22.934Z,5.83
2019-03-05T04:26:53.835Z,7.43
2019-03-05T04:29:24.711Z,6.07
2019-03-05T04:31:55.630Z,6.40
2019-03-05T04:34:26.515Z,6.53
2019-03-05T04:36:57.447Z,4.40
2019-03-05T04:39:28.354Z,3.80
2019-03-05T04:41:59.298Z,4.23
2019-03-05T04:44:49.085Z,5.00
2019-03-05T04:47:19.997Z,5.60
2019-03-05T04:50:05.579Z,5.53
2019-03-05T04:52:37.922Z,8.53
2019-03-05T04:55:09.949Z,5.83
2019-03-05T04:57:40.834Z,5.47
2019-03-05T05:00:15.490Z,5.67
2019-03-05T05:02:46.586Z,5.87
2019-03-05T05:05:17.503Z,4.43
2019-03-05T05:07:48.431Z,6.27
2019-03-05T05:10:19.350Z,4.67
2019-03-05T05:12:50.286Z,6.07
2019-03-05T05:15:33.150Z,4.77
2019-03-05T05:18:04.511Z,6.53
2019-03-05T05:20:35.409Z,5.87
2019-03-05T05:23:06.336Z,5.30
2019-03-05T05:25:37.222Z,4.97
2019-03-05T05:28:08.158Z,6.53
2019-03-05T05:30:40.830Z,5.53
2019-03-05T05:33:11.762Z,4.50
2019-03-05T05:35:42.663Z,7.87
2019-03-05T05:38:13.593Z,6.77
2019-03-05T05:40:46.439Z,5.30
2019-03-05T05:43:29.781Z,7.03
2019-03-05T05:46:00.660Z,5.33
2019-03-05T05:48:31.646Z,5.67
2019-03-05T05:51:02.567Z,5.07
2019-03-05T05:53:33.503Z,7.10
2019-03-05T05:56:04.397Z,7.00
2019-03-05T05:58:35.318Z,7.07
2019-03-05T06:01:09.961Z,5.00
2019-03-05T06:03:40.883Z,6.73
2019-03-05T06:06:11.790Z,7.53
2019-03-05T06:08:42.707Z,6.07
2019-03-05T06:11:13.690Z,8.03
2019-03-05T06:13:44.568Z,7.67
2019-03-05T06:16:15.449Z,10.37
2019-03-05T06:18:46.344Z,6.53
2019-03-05T06:21:17.227Z,6.60
2019-03-05T06:23:48.120Z,7.37
2019-03-05T06:26:19.021Z,8.47
2019-03-05T06:28:49.908Z,6.13
2019-03-05T06:31:20.779Z,5.83
2019-03-05T06:33:51.689Z,9.97
2019-03-05T06:36:22.568Z,9.73
2019-03-05T06:38:53.470Z,4.33
2019-03-05T06:41:24.353Z,7.23
2019-03-05T06:43:55.238Z,6.87
2019-03-05T06:46:26.122Z,7.63
2019-03-05T06:49:02.894Z,5.47
2019-03-05T06:51:33.797Z,7.23
2019-03-05T06:54:04.702Z,9.17
2019-03-05T06:56:35.600Z,8.63
2019-03-05T06:59:06.510Z,6.60
2019-03-05T07:01:37.381Z,6.70
2019-03-05T07:04:08.259Z,9.97
2019-03-05T07:06:57.047Z,8.60
2019-03-05T07:09:55.581Z,5.90
2019-03-05T07:13:02.328Z,6.60
2019-03-05T07:16:23.331Z,10.23
2019-03-05T07:19:22.958Z,5.30
2019-03-05T07:22:46.574Z,4.40
2019-03-05T07:25:17.455Z,7.57
2019-03-05T07:27:57.199Z,6.60
2019-03-05T07:30:28.949Z,7.47
2019-03-05T07:33:01.338Z,6.10
2019-03-05T07:35:34.460Z,5.63
2019-03-05T07:38:05.753Z,6.50
2019-03-05T07:40:36.640Z,9.10
2019-03-05T07:43:07.530Z,7.23
2019-03-05T07:45:38.418Z,9.57
2019-03-05T07:48:09.311Z,5.67
2019-03-05T07:50:40.204Z,5.73
2019-03-05T07:53:11.149Z,6.80
2019-03-05T07:55:42.139Z,8.10
2019-03-05T07:58:13.058Z,9.57
2019-03-05T08:00:43.940Z,6.67
2019-03-05T08:03:14.854Z,4.77
2019-03-05T08:05:47.546Z,5.93
2019-03-05T08:09:13.114Z,5.00
2019-03-05T08:11:44.014Z,9.33
2019-03-05T08:15:06.558Z,6.57
2019-03-05T08:17:37.594Z,10.00
2019-03-05T08:20:10.995Z,9.53
2019-03-05T08:22:42.484Z,6.73
2019-03-05T08:25:14.411Z,8.37
2019-03-05T08:27:45.296Z,7.70
2019-03-05T08:30:17.222Z,6.97
2019-03-05T08:32:48.108Z,6.67
2019-03-05T08:35:18.995Z,8.47
2019-03-05T08:37:49.877Z,6.60
2019-03-05T08:40:21.063Z,6.77
2019-03-05T08:42:51.974Z,7.67
2019-03-05T08:45:29.240Z,6.33
2019-03-05T08:47:55.511Z,7.93
2019-03-05T08:50:26.399Z,8.43
2019-03-05T08:52:57.307Z,5.23
2019-03-05T08:55:28.202Z,6.13
2019-03-05T08:57:59.440Z,4.50
2019-03-05T09:00:30.322Z,6.07
2019-03-05T09:03:02.152Z,9.67
2019-03-05T09:05:33.203Z,11.47
2019-03-05T09:08:04.243Z,9.43
2019-03-05T09:10:35.181Z,9.43
2019-03-05T09:13:09.370Z,5.60
2019-03-05T09:15:41.109Z,8.83
2019-03-05T09:18:11.999Z,7.37
2019-03-05T09:20:42.997Z,5.93
2019-03-05T09:23:13.905Z,4.07
2019-03-05T09:25:44.890Z,6.23
2019-03-05T15:46:31.879Z,6.47
2019-03-05T15:49:03.070Z,7.20
2019-03-05T15:51:34.878Z,5.13
2019-03-05T15:54:06.126Z,8.43
2019-03-05T15:56:37.276Z,7.60
2019-03-05T15:59:09.153Z,4.50
2019-03-05T16:01:40.537Z,6.90
2019-03-05T16:04:12.433Z,6.43
2019-03-05T16:06:43.596Z,6.03
2019-03-05T16:09:19.164Z,8.10
2019-03-05T16:11:50.725Z,3.87
2019-03-05T16:14:22.382Z,3.90
2019-03-05T16:16:54.434Z,6.77
2019-03-05T16:19:25.960Z,4.13
2019-03-05T16:21:57.697Z,3.23
2019-03-05T16:24:29.443Z,7.87
2019-03-05T16:27:01.037Z,4.23
2019-03-05T16:29:32.872Z,5.67
2019-03-05T16:32:23.068Z,7.63
2019-03-05T16:35:18.637Z,7.77
2019-03-05T16:38:03.601Z,8.33
2019-03-05T16:40:51.060Z,9.60
2019-03-05T16:43:47.350Z,6.60
2019-03-05T16:46:35.561Z,5.33
2019-03-05T16:49:31.401Z,7.70
2019-03-05T16:52:18.429Z,6.93
2019-03-05T16:55:27.496Z,5.97
2019-03-05T16:58:20.368Z,5.80
2019-03-05T17:01:03.770Z,6.90
2019-03-05T17:03:53.133Z,9.00
2019-03-05T17:06:43.503Z,6.17
2019-03-05T17:09:32.469Z,6.13
2019-03-05T17:12:03.530Z,6.73
2019-03-05T17:14:34.617Z,8.37
2019-03-05T17:17:07.824Z,7.00
2019-03-05T17:19:39.263Z,7.23
2019-03-05T17:22:11.385Z,9.03
2019-03-05T17:24:42.689Z,9.17
2019-03-05T17:27:14.711Z,6.67
2019-03-05T17:29:45.806Z,8.00
2019-03-05T17:32:18.390Z,7.57
2019-03-05T17:34:50.848Z,7.77
2019-03-05T17:37:22.176Z,6.90
2019-03-05T17:39:53.217Z,8.27
2019-03-05T17:42:24.605Z,6.97
2019-03-05T17:44:55.790Z,11.13
2019-03-05T17:47:27.501Z,9.97
2019-03-05T17:49:58.666Z,8.13
2019-03-05T17:52:29.761Z,8.60
2019-03-05T17:55:00.770Z,8.07
2019-03-05T17:57:32.024Z,8.60
2019-03-05T18:00:03.756Z,10.70
2019-03-05T18:02:35.192Z,10.27
2019-03-05T18:05:07.308Z,11.10
2019-03-05T18:07:38.418Z,10.70
2019-03-05T18:10:10.814Z,12.00
2019-03-05T18:12:44.037Z,8.60
2019-03-05T18:15:15.939Z,7.63
2019-03-05T18:17:47.130Z,8.40
2019-03-05T18:20:19.738Z,11.63
2019-03-05T18:22:51.033Z,8.13
2019-03-05T18:25:23.187Z,9.50
2019-03-05T18:27:54.623Z,9.90
2019-03-05T18:30:25.834Z,9.47
2019-03-05T18:32:57.377Z,7.00
2019-03-05T18:35:28.413Z,7.67
2019-03-05T18:37:59.367Z,8.47
2019-03-05T18:40:30.452Z,8.77
2019-03-05T18:43:01.539Z,7.10
2019-03-05T18:45:32.591Z,6.37
2019-03-05T18:48:03.561Z,9.40
2019-03-05T18:50:34.794Z,11.43
2019-03-05T18:53:06.396Z,28.13
2019-03-05T18:55:38.281Z,26.30
2019-03-05T18:58:10.010Z,23.43
2019-03-05T19:00:41.629Z,16.70
2019-03-05T19:03:13.522Z,11.50
2019-03-05T19:05:44.829Z,12.60
2019-03-05T19:08:16.288Z,12.37
2019-03-05T19:10:48.097Z,14.33
2019-03-05T19:13:19.346Z,15.63
2019-03-05T19:15:50.811Z,15.03
2019-03-05T19:18:22.901Z,12.00
2019-03-05T19:20:55.435Z,12.83
2019-03-05T19:23:26.563Z,11.73
2019-03-05T19:25:58.116Z,9.17
2019-03-05T19:28:29.899Z,11.00
2019-03-05T19:31:01.276Z,10.50
2019-03-05T19:33:32.231Z,8.67
2019-03-05T19:36:03.855Z,11.00
2019-03-05T19:38:35.713Z,7.93
2019-03-05T19:41:07.703Z,7.50
2019-03-05T19:43:42.669Z,9.10
2019-03-05T19:46:14.869Z,10.47
2019-03-05T19:48:45.883Z,9.13
2019-03-05T19:51:17.409Z,9.63
2019-03-05T19:53:49.386Z,9.33
2019-03-05T19:56:21.959Z,9.87
2019-03-05T19:58:54.043Z,8.37
2019-03-05T20:01:31.894Z,8.23
2019-03-05T20:04:11.479Z,7.43
2019-03-05T20:06:37.543Z,9.90
2019-03-05T20:09:10.481Z,6.60
2019-03-05T20:11:43.209Z,6.47
2019-03-05T20:14:15.366Z,11.03
2019-03-05T20:16:47.350Z,19.60
2019-03-05T20:19:19.612Z,38.63
2019-03-05T20:21:51.691Z,45.57
2019-03-05T20:24:23.773Z,8.13
2019-03-05T20:26:55.964Z,10.47
2019-03-05T20:29:28.173Z,8.23
2019-03-05T20:32:00.358Z,6.90
2019-03-05T20:34:32.636Z,10.10
2019-03-05T20:37:03.596Z,6.77
2019-03-05T20:39:36.213Z,7.80
2019-03-05T20:42:08.121Z,5.63
2019-03-05T20:44:40.821Z,6.17
2019-03-05T20:47:13.535Z,8.53
2019-03-05T20:49:45.723Z,17.80
2019-03-05T20:52:17.981Z,11.60
2019-03-05T20:54:50.012Z,9.07
2019-03-05T20:57:22.112Z,9.23
2019-03-05T20:59:54.692Z,6.47
2019-03-05T21:02:26.749Z,11.00
2019-03-05T21:04:59.315Z,6.37
2019-03-05T21:07:31.072Z,8.07
2019-03-05T21:10:02.132Z,5.37
2019-03-05T21:12:33.142Z,7.07
2019-03-05T21:15:05.575Z,6.53
2019-03-05T21:17:36.550Z,8.20
2019-03-05T21:20:10.026Z,6.93
2019-03-05T21:22:42.136Z,8.03
2019-03-05T21:25:13.690Z,8.47
2019-03-05T21:27:46.441Z,7.47
2019-03-05T21:30:20.080Z,11.03
2019-03-05T21:32:52.565Z,14.97
2019-03-05T21:35:23.681Z,12.50
2019-03-05T21:37:55.532Z,12.80
2019-03-05T21:40:28.715Z,10.97
2019-03-05T21:43:00.695Z,9.87
2019-03-05T21:45:38.174Z,8.60
2019-03-05T21:48:10.498Z,11.00
2019-03-05T21:50:41.896Z,10.77
2019-03-05T21:53:13.223Z,7.43
2019-03-05T21:55:44.241Z,7.00
2019-03-05T21:58:16.800Z,7.67
2019-03-05T22:00:47.757Z,8.27
2019-03-05T22:03:19.162Z,7.03
2019-03-05T22:05:50.727Z,7.23
2019-03-05T22:08:21.974Z,6.47
2019-03-05T22:10:53.710Z,5.03
2019-03-05T22:13:24.687Z,6.70
2019-03-05T22:15:55.708Z,4.27
2019-03-05T22:18:26.673Z,6.90
2019-03-05T22:20:57.760Z,9.47
2019-03-05T22:23:30.062Z,6.60
2019-03-05T22:26:01.177Z,8.27
2019-03-05T22:28:32.217Z,6.03
2019-03-05T22:31:03.259Z,5.90
2019-03-05T22:33:37.019Z,8.00
2019-03-05T22:36:08.000Z,5.77
2019-03-05T22:38:38.980Z,7.40
2019-03-05T22:41:10.002Z,6.47
2019-03-05T22:43:42.243Z,5.73
2019-03-05T22:46:14.680Z,12.47
2019-03-05T22:48:45.817Z,10.03
2019-03-05T22:51:18.013Z,10.17
2019-03-05T22:53:49.182Z,12.87
2019-03-05T22:56:22.207Z,9.97
2019-03-05T22:58:53.927Z,10.57
2019-03-05T23:01:43.813Z,12.33
2019-03-05T23:04:22.907Z,10.13
2019-03-05T23:06:54.049Z,10.07
2019-03-05T23:09:26.131Z,10.37
2019-03-05T23:12:00.472Z,9.33
2019-03-05T23:14:33.854Z,9.33
2019-03-05T23:17:05.846Z,7.07
2019-03-05T23:19:38.093Z,7.60
2019-03-05T23:22:10.537Z,7.90
2019-03-05T23:24:43.498Z,6.93
2019-03-05T23:27:15.342Z,8.07
2019-03-05T23:29:48.054Z,10.20
2019-03-05T23:32:20.307Z,8.87
2019-03-05T23:34:51.823Z,6.97
2019-03-05T23:37:22.962Z,10.57
2019-03-05T23:39:54.307Z,13.77
2019-03-05T23:42:26.161Z,12.70
2019-03-05T23:44:57.377Z,13.53
2019-03-05T23:47:29.553Z,15.57
2019-03-05T23:50:03.330Z,12.87
2019-03-05T23:52:34.474Z,11.47
2019-03-05T23:55:06.876Z,11.43
2019-03-05T23:57:37.808Z,9.47
